createdAt,value
2018-06-24T00:01:22.967Z,5.50
2018-06-24T00:03:50.183Z,4.97
2018-06-24T00:06:17.230Z,4.62
2018-06-24T00:08:44.420Z,5.30
2018-06-24T00:11:11.650Z,4.92
2018-06-24T00:13:38.854Z,4.58
2018-06-24T00:16:05.847Z,4.75
2018-06-24T00:18:32.879Z,5.42
2018-06-24T00:20:59.827Z,4.60
2018-06-24T00:23:26.982Z,4.85
2018-06-24T00:25:54.123Z,4.40
2018-06-24T00:28:21.088Z,5.10
2018-06-24T00:30:48.803Z,4.53
2018-06-24T00:33:15.738Z,4.45
2018-06-24T00:35:42.682Z,5.40
2018-06-24T00:38:09.615Z,4.95
2018-06-24T00:40:36.819Z,5.10
2018-06-24T00:43:03.815Z,3.95
2018-06-24T00:45:30.874Z,4.92
2018-06-24T00:47:57.870Z,4.15
2018-06-24T00:50:24.786Z,5.45
2018-06-24T00:52:51.727Z,4.92
2018-06-24T00:55:18.762Z,3.87
2018-06-24T00:57:45.754Z,4.85
2018-06-24T01:00:14.491Z,4.55
2018-06-24T01:02:41.643Z,4.80
2018-06-24T01:05:09.351Z,4.67
2018-06-24T01:07:36.279Z,4.95
2018-06-24T01:10:03.255Z,4.17
2018-06-24T01:12:30.355Z,4.20
2018-06-24T01:14:57.395Z,4.67
2018-06-24T01:17:24.319Z,4.58
2018-06-24T01:19:53.159Z,5.50
2018-06-24T01:22:20.163Z,4.37
2018-06-24T01:24:47.130Z,4.35
2018-06-24T01:27:14.048Z,4.75
2018-06-24T01:29:41.354Z,4.75
2018-06-24T01:32:08.306Z,3.80
2018-06-24T01:34:35.591Z,4.53
2018-06-24T01:37:02.511Z,5.35
2018-06-24T01:39:29.463Z,4.62
2018-06-24T01:41:56.451Z,4.70
2018-06-24T01:44:23.418Z,4.95
2018-06-24T01:46:50.347Z,4.10
2018-06-24T01:49:17.286Z,4.45
2018-06-24T01:51:44.223Z,5.70
2018-06-24T01:54:11.182Z,4.90
2018-06-24T01:56:38.135Z,4.33
2018-06-24T01:59:05.227Z,5.53
2018-06-24T02:01:32.193Z,4.90
2018-06-24T02:03:59.095Z,5.83
2018-06-24T02:06:26.023Z,5.50
2018-06-24T02:08:52.962Z,4.85
2018-06-24T02:11:19.942Z,4.90
2018-06-24T02:13:46.851Z,5.35
2018-06-24T02:16:13.819Z,5.25
2018-06-24T02:18:40.751Z,4.97
2018-06-24T02:21:07.830Z,5.17
2018-06-24T02:23:34.855Z,5.40
2018-06-24T02:26:01.999Z,6.35
2018-06-24T02:28:28.943Z,5.65
2018-06-24T02:30:55.876Z,5.10
2018-06-24T02:33:22.904Z,4.37
2018-06-24T02:35:50.008Z,6.05
2018-06-24T02:38:17.078Z,5.87
2018-06-24T02:40:44.024Z,6.20
2018-06-24T02:43:10.977Z,5.55
2018-06-24T02:45:37.915Z,5.75
2018-06-24T02:48:04.903Z,6.45
2018-06-24T02:50:31.811Z,5.55
2018-06-24T02:52:58.890Z,5.03
2018-06-24T02:55:25.823Z,6.50
2018-06-24T02:57:52.751Z,5.60
2018-06-24T03:00:19.723Z,5.50
2018-06-24T03:02:46.823Z,5.17
2018-06-24T03:05:13.743Z,5.58
2018-06-24T03:07:41.423Z,5.50
2018-06-24T03:10:08.362Z,5.00
2018-06-24T03:12:35.311Z,5.50
2018-06-24T03:15:02.275Z,5.03
2018-06-24T03:17:29.215Z,4.87
2018-06-24T03:19:56.155Z,5.65
2018-06-24T03:22:23.119Z,5.40
2018-06-24T03:24:50.047Z,4.55
2018-06-24T03:27:16.984Z,5.40
2018-06-24T03:29:43.951Z,5.92
2018-06-24T03:32:11.461Z,5.20
2018-06-24T03:34:38.436Z,5.50
2018-06-24T03:37:05.573Z,6.05
2018-06-24T03:39:32.567Z,6.35
2018-06-24T03:41:59.514Z,5.80
2018-06-24T03:44:26.460Z,6.03
2018-06-24T03:46:53.440Z,6.15
2018-06-24T03:49:20.363Z,7.20
2018-06-24T03:51:47.295Z,6.53
2018-06-24T03:54:14.315Z,5.50
2018-06-24T03:56:41.257Z,5.60
2018-06-24T03:59:08.260Z,5.05
2018-06-24T04:01:35.203Z,5.95
2018-06-24T04:04:02.131Z,7.03
2018-06-24T04:06:29.298Z,5.10
2018-06-24T04:08:56.227Z,4.83
2018-06-24T04:11:23.175Z,5.28
2018-06-24T04:13:50.980Z,5.67
2018-06-24T04:16:19.435Z,5.47
2018-06-24T04:18:46.404Z,6.05
2018-06-24T04:21:14.357Z,5.47
2018-06-24T04:23:42.666Z,5.15
2018-06-24T04:26:10.445Z,4.92
2018-06-24T04:28:37.887Z,4.62
2018-06-24T04:31:04.862Z,4.90
2018-06-24T04:33:32.357Z,6.75
2018-06-24T04:35:59.427Z,5.20
2018-06-24T04:38:26.377Z,5.75
2018-06-24T04:40:53.431Z,5.60
2018-06-24T04:43:20.511Z,5.90
2018-06-24T04:45:47.543Z,4.85
2018-06-24T04:48:15.052Z,4.05
2018-06-24T04:50:42.006Z,4.55
2018-06-24T04:53:09.039Z,4.00
2018-06-24T04:55:35.975Z,3.67
2018-06-24T04:58:02.884Z,3.58
2018-06-24T05:00:29.867Z,4.42
2018-06-24T05:02:56.807Z,3.95
2018-06-24T05:05:23.839Z,3.35
2018-06-24T05:07:50.943Z,3.77
2018-06-24T05:10:17.911Z,3.77
2018-06-24T05:12:44.867Z,3.55
2018-06-24T05:15:11.941Z,4.05
2018-06-24T05:17:38.881Z,4.22
2018-06-24T05:20:05.911Z,3.75
2018-06-24T05:22:32.977Z,4.45
2018-06-24T05:24:59.923Z,3.87
2018-06-24T05:27:27.263Z,4.87
2018-06-24T05:29:54.159Z,4.85
2018-06-24T05:32:21.230Z,4.67
2018-06-24T05:34:48.147Z,4.83
2018-06-24T05:37:15.139Z,4.95
2018-06-24T05:39:42.063Z,4.55
2018-06-24T05:42:09.390Z,5.03
2018-06-24T05:44:36.395Z,4.30
2018-06-24T05:47:03.347Z,4.53
2018-06-24T05:49:30.311Z,4.17
2018-06-24T05:51:57.220Z,3.98
2018-06-24T05:54:24.664Z,5.62
2018-06-24T05:56:51.670Z,4.00
2018-06-24T05:59:18.798Z,4.20
2018-06-24T06:01:45.837Z,4.50
2018-06-24T06:04:12.787Z,4.80
2018-06-24T06:06:39.796Z,4.45
2018-06-24T06:09:08.343Z,4.10
2018-06-24T06:11:35.279Z,5.67
2018-06-24T06:14:02.264Z,5.62
2018-06-24T06:16:29.188Z,5.08
2018-06-24T06:18:56.566Z,4.10
2018-06-24T06:21:23.504Z,6.15
2018-06-24T06:23:50.459Z,4.12
2018-06-24T06:26:17.367Z,4.90
2018-06-24T06:28:44.298Z,5.25
2018-06-24T06:31:11.395Z,5.40
2018-06-24T06:33:38.415Z,5.50
2018-06-24T06:36:06.207Z,5.03
2018-06-24T06:38:33.290Z,5.83
2018-06-24T06:41:00.252Z,5.67
2018-06-24T06:43:27.248Z,4.08
2018-06-24T06:45:54.163Z,4.30
2018-06-24T06:48:21.099Z,4.40
2018-06-24T06:50:48.032Z,4.80
2018-06-24T06:53:14.955Z,5.20
2018-06-24T06:55:41.879Z,5.22
2018-06-24T06:58:08.912Z,4.60
2018-06-24T07:00:35.838Z,4.60
2018-06-24T07:03:02.855Z,4.80
2018-06-24T07:05:29.787Z,4.97
2018-06-24T07:07:56.810Z,4.13
2018-06-24T07:10:23.896Z,5.57
2018-06-24T07:12:50.830Z,4.47
2018-06-24T07:15:17.802Z,4.60
2018-06-24T07:17:44.710Z,5.90
2018-06-24T07:20:11.679Z,5.63
2018-06-24T07:22:38.669Z,5.23
2018-06-24T07:25:05.751Z,5.43
2018-06-24T07:27:32.675Z,5.20
2018-06-24T07:29:59.625Z,5.07
2018-06-24T07:32:26.539Z,4.47
2018-06-24T07:34:53.532Z,4.70
2018-06-24T07:37:20.454Z,4.40
2018-06-24T07:39:47.535Z,4.80
2018-06-24T07:42:14.467Z,4.47
2018-06-24T07:44:41.547Z,3.53
2018-06-24T07:47:08.683Z,3.15
2018-06-24T07:49:35.677Z,2.77
2018-06-24T07:52:02.608Z,2.58
2018-06-24T07:54:29.547Z,1.90
2018-06-24T07:56:56.491Z,2.50
2018-06-24T07:59:23.954Z,2.02
2018-06-24T08:01:50.871Z,1.60
2018-06-24T08:04:17.783Z,1.95
2018-06-24T08:06:44.782Z,1.80
2018-06-24T08:09:12.169Z,2.37
2018-06-24T08:11:40.147Z,2.25
2018-06-24T08:14:07.109Z,1.60
2018-06-24T08:16:34.083Z,1.67
2018-06-24T08:19:01.563Z,2.12
2018-06-24T08:21:28.502Z,2.63
2018-06-24T08:23:55.427Z,2.37
2018-06-24T08:26:22.376Z,3.00
2018-06-24T08:28:49.310Z,1.97
2018-06-24T08:31:16.235Z,1.62
2018-06-24T08:33:43.138Z,1.40
2018-06-24T08:36:10.076Z,1.73
2018-06-24T08:38:37.079Z,1.47
2018-06-24T08:41:04.150Z,1.30
2018-06-24T08:43:31.079Z,1.10
2018-06-24T08:45:58.091Z,1.47
2018-06-24T08:48:25.003Z,1.55
2018-06-24T08:50:52.015Z,1.63
2018-06-24T08:53:18.971Z,1.37
2018-06-24T08:55:45.910Z,1.55
2018-06-24T08:58:12.839Z,1.10
2018-06-24T09:00:39.774Z,1.67
2018-06-24T09:03:06.767Z,1.20
2018-06-24T09:05:33.699Z,1.20
2018-06-24T09:08:00.720Z,1.03
2018-06-24T09:10:27.705Z,1.20
2018-06-24T09:12:54.629Z,0.90
2018-06-24T09:15:21.580Z,1.00
2018-06-24T09:17:48.723Z,1.10
2018-06-24T09:20:15.779Z,1.10
2018-06-24T09:22:42.727Z,1.27
2018-06-24T09:25:09.659Z,0.93
2018-06-24T09:27:36.611Z,0.97
2018-06-24T09:30:03.990Z,1.50
2018-06-24T09:32:30.959Z,1.10
2018-06-24T09:34:57.899Z,1.13
2018-06-24T09:37:24.931Z,1.07
2018-06-24T09:39:51.842Z,1.60
2018-06-24T09:42:18.811Z,1.10
2018-06-24T09:44:45.801Z,1.40
2018-06-24T09:47:13.780Z,2.00
2018-06-24T09:49:40.791Z,1.60
2018-06-24T09:52:09.621Z,1.90
2018-06-24T09:54:36.598Z,1.30
2018-06-24T09:57:03.639Z,1.30
2018-06-24T09:59:30.767Z,1.33
2018-06-24T10:01:57.737Z,1.80
2018-06-24T10:04:24.815Z,1.03
2018-06-24T10:06:52.039Z,2.03
2018-06-24T10:09:18.941Z,1.87
2018-06-24T10:11:45.915Z,1.90
2018-06-24T10:14:12.823Z,2.47
2018-06-24T10:16:39.746Z,1.50
2018-06-24T10:19:06.662Z,2.03
2018-06-24T10:21:33.654Z,2.00
2018-06-24T10:24:00.629Z,1.47
2018-06-24T10:26:27.579Z,1.85
2018-06-24T10:28:55.110Z,1.60
2018-06-24T10:31:21.862Z,1.70
2018-06-24T10:33:48.777Z,1.60
2018-06-24T10:36:15.714Z,1.30
2018-06-24T10:38:42.987Z,2.30
2018-06-24T10:41:10.251Z,1.40
2018-06-24T10:43:37.199Z,1.50
2018-06-24T10:46:04.160Z,1.57
2018-06-24T10:48:31.103Z,1.67
2018-06-24T10:50:58.026Z,1.50
2018-06-24T10:53:25.008Z,1.67
2018-06-24T10:55:51.931Z,1.73
2018-06-24T10:58:18.887Z,1.70
2018-06-24T11:00:45.848Z,1.70
2018-06-24T11:03:12.808Z,1.57
2018-06-24T11:05:39.739Z,1.57
2018-06-24T11:08:06.671Z,1.23
2018-06-24T11:10:33.578Z,0.93
2018-06-24T11:13:00.519Z,1.13
2018-06-24T11:15:27.475Z,1.40
2018-06-24T11:17:54.503Z,1.27
2018-06-24T11:20:21.437Z,1.20
2018-06-24T11:22:48.363Z,1.20
2018-06-24T11:25:15.351Z,1.20
2018-06-24T11:27:42.367Z,1.07
2018-06-24T11:30:09.294Z,0.97
2018-06-24T11:32:36.203Z,0.90
2018-06-24T11:35:03.191Z,1.00
2018-06-24T11:37:30.103Z,1.00
2018-06-24T11:39:57.263Z,1.27
2018-06-24T11:42:24.243Z,1.27
2018-06-24T11:44:51.166Z,1.77
2018-06-24T11:47:18.074Z,2.20
2018-06-24T11:49:44.999Z,2.33
2018-06-24T11:52:11.951Z,2.00
2018-06-24T11:54:38.864Z,1.43
2018-06-24T11:57:06.225Z,2.00
2018-06-24T11:59:33.139Z,1.97
2018-06-24T12:02:00.379Z,1.50
2018-06-24T12:04:27.256Z,1.83
2018-06-24T12:06:54.244Z,1.87
2018-06-24T12:09:21.166Z,1.87
2018-06-24T12:11:48.575Z,1.80
2018-06-24T12:14:15.495Z,2.10
2018-06-24T12:16:42.579Z,1.50
2018-06-24T12:19:09.511Z,1.50
2018-06-24T12:21:36.575Z,1.80
2018-06-24T12:24:03.795Z,1.40
2018-06-24T12:26:30.735Z,1.60
2018-06-24T12:28:58.127Z,1.47
2018-06-24T12:31:25.147Z,1.47
2018-06-24T12:33:52.053Z,1.37
2018-06-24T12:36:19.486Z,1.53
2018-06-24T12:38:46.427Z,1.30
2018-06-24T12:41:13.339Z,1.37
2018-06-24T12:43:40.599Z,1.40
2018-06-24T12:46:07.845Z,1.63
2018-06-24T12:48:34.907Z,1.33
2018-06-24T12:51:01.823Z,1.37
2018-06-24T12:53:28.752Z,1.07
2018-06-24T12:55:55.655Z,1.30
2018-06-24T12:58:22.681Z,1.23
2018-06-24T13:00:50.047Z,1.30
2018-06-24T13:03:16.667Z,1.30
2018-06-24T13:05:43.578Z,1.37
2018-06-24T13:08:10.497Z,1.67
2018-06-24T13:10:37.431Z,2.07
2018-06-24T13:13:04.355Z,1.80
2018-06-24T13:15:31.325Z,2.00
2018-06-24T13:17:58.291Z,1.50
2018-06-24T13:20:25.223Z,1.83
2018-06-24T13:22:52.203Z,1.83
2018-06-24T13:25:19.187Z,2.37
2018-06-24T13:27:46.353Z,1.80
2018-06-24T13:30:13.283Z,1.90
2018-06-24T13:32:40.303Z,1.70
2018-06-24T13:35:07.315Z,1.70
2018-06-24T13:37:34.236Z,1.40
2018-06-24T13:40:01.175Z,1.40
2018-06-24T13:42:28.177Z,2.10
2018-06-24T13:44:55.183Z,1.93
2018-06-24T13:47:22.123Z,1.60
2018-06-24T13:49:49.056Z,1.60
2018-06-24T13:52:16.051Z,2.10
2018-06-24T13:54:43.062Z,1.50
2018-06-24T13:57:09.973Z,1.90
2018-06-24T13:59:36.945Z,2.27
2018-06-24T14:02:04.050Z,2.13
2018-06-24T14:04:31.031Z,2.40
2018-06-24T14:06:58.067Z,2.30
2018-06-24T14:09:25.023Z,2.00
2018-06-24T14:11:51.930Z,1.70
2018-06-24T14:14:18.858Z,1.87
2018-06-24T14:16:45.779Z,1.63
2018-06-24T14:19:12.731Z,1.50
2018-06-24T14:21:39.708Z,1.57
2018-06-24T14:24:06.783Z,1.80
2018-06-24T14:26:34.490Z,1.87
2018-06-24T14:29:01.485Z,1.53
2018-06-24T14:31:28.463Z,1.47
2018-06-24T14:33:55.442Z,1.30
2018-06-24T14:36:22.645Z,1.73
2018-06-24T14:38:49.599Z,1.70
2018-06-24T14:41:16.544Z,1.60
2018-06-24T14:43:43.491Z,1.70
2018-06-24T14:46:10.556Z,1.30
2018-06-24T14:48:37.743Z,1.53
2018-06-24T14:51:04.819Z,1.87
2018-06-24T14:53:31.787Z,2.03
2018-06-24T14:55:58.861Z,1.90
2018-06-24T14:58:25.933Z,1.97
2018-06-24T15:00:52.868Z,1.80
2018-06-24T15:03:19.854Z,1.53
2018-06-24T15:05:46.895Z,1.70
2018-06-24T15:08:13.791Z,2.27
2018-06-24T15:10:40.755Z,1.93
2018-06-24T15:13:07.727Z,2.00
2018-06-24T15:15:34.802Z,2.23
2018-06-24T15:18:01.756Z,2.10
2018-06-24T15:20:28.864Z,1.50
2018-06-24T15:22:55.785Z,2.00
2018-06-24T15:25:22.943Z,1.70
2018-06-24T15:27:50.120Z,2.00
2018-06-24T15:30:17.039Z,1.97
2018-06-24T15:32:44.455Z,2.00
2018-06-24T15:35:12.023Z,2.43
2018-06-24T15:37:38.972Z,1.60
2018-06-24T15:40:06.011Z,2.17
2018-06-24T15:42:32.934Z,2.10
2018-06-24T15:44:59.840Z,2.30
2018-06-24T15:47:26.925Z,2.10
2018-06-24T15:49:53.863Z,2.07
2018-06-24T15:52:21.023Z,2.63
2018-06-24T15:54:47.940Z,2.03
2018-06-24T15:57:14.917Z,2.27
2018-06-24T15:59:41.857Z,3.00
2018-06-24T16:02:09.068Z,2.53
2018-06-24T16:04:35.979Z,2.17
2018-06-24T16:07:03.175Z,2.53
2018-06-24T16:09:30.100Z,2.23
2018-06-24T16:11:57.087Z,3.33
2018-06-24T16:14:24.171Z,2.13
2018-06-24T16:16:51.731Z,2.77
2018-06-24T16:19:18.642Z,2.40
2018-06-24T16:21:45.604Z,3.03
2018-06-24T16:24:12.532Z,3.67
2018-06-24T16:26:39.449Z,3.20
2018-06-24T16:29:06.379Z,3.67
2018-06-24T16:31:33.327Z,3.43
2018-06-24T16:34:00.275Z,3.03
2018-06-24T16:36:27.327Z,2.97
2018-06-24T16:38:54.263Z,2.73
2018-06-24T16:41:21.267Z,2.70
2018-06-24T16:43:48.195Z,2.70
2018-06-24T16:46:15.202Z,2.47
2018-06-24T16:48:42.247Z,3.43
2018-06-24T16:51:09.170Z,2.80
2018-06-24T16:53:36.479Z,3.00
2018-06-24T16:56:03.555Z,2.97
2018-06-24T16:58:30.487Z,2.73
2018-06-24T17:00:57.479Z,3.37
2018-06-24T17:03:24.502Z,2.17
2018-06-24T17:05:51.515Z,2.90
2018-06-24T17:08:18.447Z,3.60
2018-06-24T17:10:45.828Z,3.03
2018-06-24T17:13:12.736Z,3.40
2018-06-24T17:15:39.672Z,3.55
2018-06-24T17:18:06.617Z,2.87
2018-06-24T17:20:33.567Z,2.63
2018-06-24T17:23:00.545Z,2.57
2018-06-24T17:25:27.495Z,3.30
2018-06-24T17:27:54.394Z,2.80
2018-06-24T17:30:21.343Z,4.10
2018-06-24T17:32:48.258Z,2.57
2018-06-24T17:35:15.279Z,2.83
2018-06-24T17:37:42.187Z,2.47
2018-06-24T17:40:09.267Z,2.50
2018-06-24T17:42:36.170Z,3.03
2018-06-24T17:45:03.133Z,2.70
2018-06-24T17:47:30.411Z,2.47
2018-06-24T17:49:57.470Z,3.47
2018-06-24T17:52:24.395Z,3.67
2018-06-24T17:54:51.418Z,3.17
2018-06-24T17:57:18.367Z,3.07
2018-06-24T17:59:45.419Z,2.90
2018-06-24T18:02:12.335Z,3.03
2018-06-24T18:04:39.275Z,3.00
2018-06-24T18:07:06.203Z,2.70
2018-06-24T18:09:33.131Z,2.80
2018-06-24T18:12:00.127Z,2.40
2018-06-24T18:14:27.043Z,2.80
2018-06-24T18:16:53.977Z,3.17
2018-06-24T18:19:20.883Z,2.87
2018-06-24T18:21:48.015Z,2.83
2018-06-24T18:24:14.935Z,2.80
2018-06-24T18:26:41.989Z,2.53
2018-06-24T18:29:09.203Z,2.87
2018-06-24T18:31:36.183Z,2.90
2018-06-24T18:34:03.142Z,2.70
2018-06-24T18:36:30.075Z,2.63
2018-06-24T18:38:56.999Z,2.70
2018-06-24T18:41:23.935Z,2.70
2018-06-24T18:43:50.854Z,2.83
2018-06-24T18:46:17.799Z,2.60
2018-06-24T18:48:44.719Z,2.70
2018-06-24T18:51:11.851Z,3.10
2018-06-24T18:53:38.770Z,2.90
2018-06-24T18:56:06.831Z,2.90
2018-06-24T18:58:33.756Z,2.90
2018-06-24T19:01:00.927Z,2.73
2018-06-24T19:03:27.895Z,3.40
2018-06-24T19:05:54.843Z,2.80
2018-06-24T19:08:21.768Z,3.30
2018-06-24T19:10:49.011Z,3.07
2018-06-24T19:13:15.965Z,3.13
2018-06-24T19:15:42.979Z,2.97
2018-06-24T19:18:09.915Z,3.20
2018-06-24T19:29:45.851Z,2.95
2018-06-24T19:32:12.776Z,3.00
2018-06-24T19:34:39.767Z,3.20
2018-06-24T19:37:06.694Z,3.40
2018-06-24T19:39:33.697Z,2.83
2018-06-24T19:42:00.615Z,2.50
2018-06-24T19:44:27.563Z,2.90
2018-06-24T19:46:54.506Z,2.90
2018-06-24T19:49:21.452Z,2.83
2018-06-24T19:51:49.071Z,3.20
2018-06-24T19:54:15.992Z,2.90
2018-06-24T19:56:42.980Z,2.97
2018-06-24T19:59:09.881Z,3.50
2018-06-24T20:01:37.034Z,2.73
2018-06-24T20:04:03.959Z,3.12
2018-06-24T20:06:31.010Z,3.60
2018-06-24T20:08:57.923Z,3.47
2018-06-24T20:11:24.863Z,2.83
2018-06-24T20:13:51.771Z,3.50
2018-06-24T20:16:18.712Z,3.20
2018-06-24T20:18:45.675Z,4.12
2018-06-24T20:21:12.623Z,3.60
2018-06-24T20:23:39.566Z,3.30
2018-06-24T20:26:06.567Z,3.37
2018-06-24T20:28:33.639Z,3.50
2018-06-24T20:31:00.563Z,3.62
2018-06-24T20:33:27.507Z,3.72
2018-06-24T20:35:54.444Z,3.02
2018-06-24T20:38:21.643Z,3.80
2018-06-24T20:40:48.587Z,3.67
2018-06-24T20:43:15.519Z,3.53
2018-06-24T20:45:42.439Z,4.00
2018-06-24T20:48:09.375Z,4.03
2018-06-24T20:50:37.023Z,3.50
2018-06-24T20:53:04.464Z,3.27
2018-06-24T20:55:31.395Z,3.60
2018-06-24T20:57:58.301Z,3.42
2018-06-24T21:00:25.223Z,2.90
2018-06-24T21:02:52.170Z,3.97
2018-06-24T21:05:19.111Z,3.63
2018-06-24T21:07:46.099Z,3.40
2018-06-24T21:10:13.044Z,3.72
2018-06-24T21:12:39.980Z,3.10
2018-06-24T21:15:06.927Z,3.55
2018-06-24T21:17:33.868Z,3.92
2018-06-24T21:20:00.898Z,3.57
2018-06-24T21:22:27.879Z,3.27
2018-06-24T21:24:54.820Z,3.80
2018-06-24T21:27:21.879Z,3.30
2018-06-24T21:29:48.923Z,3.25
2018-06-24T21:32:15.913Z,3.87
2018-06-24T21:34:42.854Z,3.67
2018-06-24T21:37:09.847Z,3.85
2018-06-24T21:39:36.855Z,3.83
2018-06-24T21:42:03.855Z,2.90
2018-06-24T21:44:30.759Z,4.03
2018-06-24T21:46:57.744Z,3.22
2018-06-24T21:49:24.730Z,3.80
2018-06-24T21:51:52.612Z,4.47
2018-06-24T21:54:19.542Z,3.35
2018-06-24T21:56:46.714Z,3.90
2018-06-24T21:59:13.911Z,4.70
2018-06-24T22:01:40.854Z,3.95
2018-06-24T22:04:08.455Z,3.60
2018-06-24T22:06:35.405Z,3.90
2018-06-24T22:09:02.595Z,3.90
2018-06-24T22:11:29.577Z,4.78
2018-06-24T22:13:56.532Z,4.50
2018-06-24T22:16:23.477Z,3.90
2018-06-24T22:18:50.398Z,3.90
2018-06-24T22:21:17.611Z,3.98
2018-06-24T22:23:44.576Z,4.00
2018-06-24T22:26:11.539Z,3.77
2018-06-24T22:28:38.787Z,4.37
2018-06-24T22:31:05.859Z,4.17
2018-06-24T22:33:32.836Z,4.67
2018-06-24T22:35:59.861Z,4.37
2018-06-24T22:38:26.795Z,3.80
2018-06-24T22:40:53.739Z,4.10
2018-06-24T22:43:21.651Z,4.05
2018-06-24T22:45:48.824Z,3.72
2018-06-24T22:48:15.811Z,4.20
2018-06-24T22:50:42.739Z,4.30
2018-06-24T22:53:09.684Z,4.35
2018-06-24T22:55:36.655Z,3.47
2018-06-24T22:58:03.903Z,4.58
2018-06-24T23:00:30.848Z,4.20
2018-06-24T23:03:02.972Z,4.50
2018-06-24T23:05:30.136Z,4.30
2018-06-24T23:07:57.046Z,4.17
2018-06-24T23:10:23.979Z,4.33
2018-06-24T23:12:50.980Z,5.17
2018-06-24T23:15:17.887Z,4.70
2018-06-24T23:17:45.449Z,5.55
2018-06-24T23:20:12.382Z,3.77
2018-06-24T23:22:39.335Z,4.40
2018-06-24T23:25:06.309Z,4.45
2018-06-24T23:27:33.235Z,3.80
2018-06-24T23:30:00.172Z,4.12
2018-06-24T23:32:27.314Z,4.70
2018-06-24T23:34:54.406Z,4.37
2018-06-24T23:37:21.355Z,4.53
2018-06-24T23:39:48.272Z,4.35
2018-06-24T23:42:15.208Z,4.75
2018-06-24T23:44:42.135Z,4.10
2018-06-24T23:47:09.223Z,3.40
2018-06-24T23:49:36.179Z,4.10
2018-06-24T23:52:03.188Z,4.60
2018-06-24T23:54:30.193Z,4.37
2018-06-24T23:56:57.148Z,4.53
2018-06-24T23:59:24.244Z,4.08
